createdAt,value
2022-09-20T00:01:55.899Z,15.00
2022-09-20T00:04:23.503Z,15.00
2022-09-20T00:06:53.334Z,14.90
2022-09-20T00:09:21.050Z,14.70
2022-09-20T00:11:48.839Z,14.60
2022-09-20T00:14:19.469Z,14.50
2022-09-20T00:16:46.979Z,14.40
2022-09-20T00:19:20.929Z,14.30
2022-09-20T00:21:48.736Z,14.20
2022-09-20T00:24:16.394Z,14.10
2022-09-20T00:26:43.965Z,14.10
2022-09-20T00:29:13.314Z,14.00
2022-09-20T00:31:42.940Z,14.00
2022-09-20T00:34:30.145Z,13.90
2022-09-20T00:36:59.679Z,13.90
2022-09-20T00:39:27.447Z,13.80
2022-09-20T00:41:55.115Z,13.70
2022-09-20T00:44:55.641Z,13.70
2022-09-20T00:47:33.006Z,13.60
2022-09-20T00:50:09.663Z,13.50
2022-09-20T00:52:37.623Z,13.50
2022-09-20T00:55:10.584Z,13.40
2022-09-20T00:57:41.856Z,13.40
2022-09-20T01:00:17.320Z,13.30
2022-09-20T01:02:57.705Z,13.30
2022-09-20T01:05:32.284Z,13.20
2022-09-20T01:08:01.879Z,13.20
2022-09-20T01:10:36.510Z,13.20
2022-09-20T01:13:05.750Z,13.10
2022-09-20T01:15:44.099Z,13.10
2022-09-20T01:18:17.316Z,13.00
2022-09-20T01:20:47.413Z,13.00
2022-09-20T01:23:30.563Z,13.00
2022-09-20T01:26:06.006Z,13.00
2022-09-20T01:28:40.889Z,13.00
2022-09-20T01:31:17.345Z,12.90
2022-09-20T01:34:11.278Z,12.90
2022-09-20T01:37:01.057Z,12.90
2022-09-20T01:40:04.907Z,12.80
2022-09-20T01:42:39.604Z,12.80
2022-09-20T01:45:32.339Z,12.70
2022-09-20T01:48:13.833Z,12.70
2022-09-20T01:51:16.831Z,12.70
2022-09-20T01:54:14.124Z,12.60
2022-09-20T01:57:00.931Z,13.40
2022-09-20T01:59:46.966Z,12.60
2022-09-20T02:02:52.392Z,12.50
2022-09-20T02:05:57.751Z,12.50
2022-09-20T02:08:56.186Z,12.40
2022-09-20T02:12:14.843Z,12.40
2022-09-20T02:15:19.784Z,12.40
2022-09-20T02:18:36.403Z,12.30
2022-09-20T02:21:28.479Z,12.30
2022-09-20T02:24:22.583Z,12.40
2022-09-20T02:27:20.920Z,12.40
2022-09-20T02:29:57.085Z,12.50
2022-09-20T02:32:46.198Z,12.50
2022-09-20T02:35:23.901Z,12.60
2022-09-20T02:38:01.293Z,12.70
2022-09-20T02:40:53.417Z,12.80
2022-09-20T02:43:30.053Z,12.90
2022-09-20T02:46:28.375Z,12.90
2022-09-20T02:49:17.147Z,13.00
2022-09-20T02:51:56.474Z,13.00
2022-09-20T02:54:46.160Z,13.00
2022-09-20T02:57:46.624Z,13.00
2022-09-20T03:00:43.364Z,13.00
2022-09-20T03:03:38.680Z,13.00
2022-09-20T03:06:14.925Z,13.10
2022-09-20T03:09:03.772Z,13.10
2022-09-20T03:12:01.172Z,13.10
2022-09-20T03:14:36.918Z,13.10
2022-09-20T03:17:27.779Z,13.10
2022-09-20T03:20:20.544Z,13.10
2022-09-20T03:22:48.856Z,13.20
2022-09-20T03:25:40.962Z,13.20
2022-09-20T03:28:46.401Z,13.20
2022-09-20T03:31:20.863Z,13.20
2022-09-20T03:34:19.730Z,13.20
2022-09-20T03:37:18.435Z,13.30
2022-09-20T03:40:12.336Z,13.30
2022-09-20T03:42:51.251Z,13.20
2022-09-20T03:45:35.943Z,13.20
2022-09-20T03:48:29.716Z,13.20
2022-09-20T03:51:00.444Z,13.20
2022-09-20T03:53:34.984Z,13.20
2022-09-20T03:56:23.736Z,13.10
2022-09-20T03:58:57.308Z,13.10
2022-09-20T04:01:54.129Z,13.00
2022-09-20T04:04:48.542Z,13.00
2022-09-20T04:07:51.180Z,12.90
2022-09-20T04:10:33.390Z,12.80
2022-09-20T04:13:19.579Z,12.80
2022-09-20T04:16:21.679Z,12.70
2022-09-20T04:18:58.612Z,12.60
2022-09-20T04:21:53.684Z,12.50
2022-09-20T04:24:56.538Z,12.40
2022-09-20T04:27:42.250Z,12.30
2022-09-20T04:30:30.356Z,12.20
2022-09-20T04:33:22.812Z,12.10
2022-09-20T04:36:30.717Z,12.00
2022-09-20T04:39:07.026Z,11.90
2022-09-20T04:41:54.000Z,11.80
2022-09-20T04:44:25.072Z,11.70
2022-09-20T04:47:25.498Z,11.70
2022-09-20T04:50:23.899Z,11.60
2022-09-20T04:53:30.316Z,11.50
2022-09-20T04:56:04.938Z,11.40
2022-09-20T04:58:38.048Z,11.30
2022-09-20T05:01:32.286Z,11.30
2022-09-20T05:04:18.601Z,11.20
2022-09-20T05:07:23.623Z,11.10
2022-09-20T05:10:26.438Z,11.10
2022-09-20T05:13:10.865Z,11.00
2022-09-20T05:16:01.100Z,11.00
2022-09-20T05:18:28.745Z,11.00
2022-09-20T05:21:22.796Z,10.90
2022-09-20T05:24:15.484Z,10.90
2022-09-20T05:27:03.328Z,10.80
2022-09-20T05:29:37.394Z,10.80
2022-09-20T05:32:36.702Z,10.80
2022-09-20T05:35:36.656Z,10.70
2022-09-20T05:38:19.001Z,10.70
2022-09-20T05:41:26.403Z,10.60
2022-09-20T05:44:24.220Z,10.70
2022-09-20T05:47:19.268Z,10.70
2022-09-20T05:50:19.357Z,10.60
2022-09-20T05:53:17.856Z,10.60
2022-09-20T05:56:24.582Z,10.60
2022-09-20T05:59:21.672Z,10.60
2022-09-20T06:02:11.240Z,10.60
2022-09-20T06:05:03.737Z,10.60
2022-09-20T06:08:03.963Z,10.60
2022-09-20T06:10:53.961Z,10.60
2022-09-20T06:14:03.483Z,10.60
2022-09-20T06:16:59.204Z,10.60
2022-09-20T06:19:41.385Z,10.60
2022-09-20T06:22:20.412Z,10.60
2022-09-20T06:24:58.842Z,10.60
2022-09-20T06:27:52.021Z,10.60
2022-09-20T06:30:34.791Z,10.70
2022-09-20T06:33:18.649Z,10.70
2022-09-20T06:36:30.061Z,11.00
2022-09-20T06:39:33.235Z,10.70
2022-09-20T06:42:02.250Z,10.80
2022-09-20T06:44:31.426Z,10.90
2022-09-20T06:47:00.442Z,11.00
2022-09-20T06:49:29.318Z,11.10
2022-09-20T06:51:59.223Z,11.10
2022-09-20T06:54:27.807Z,11.30
2022-09-20T06:56:55.899Z,11.50
2022-09-20T06:59:23.650Z,11.80
2022-09-20T07:02:01.246Z,12.20
2022-09-20T07:04:29.047Z,12.70
2022-09-20T07:07:09.621Z,13.30
2022-09-20T07:09:37.436Z,13.90
2022-09-20T07:12:05.067Z,14.40
2022-09-20T07:14:32.691Z,14.80
2022-09-20T07:17:03.820Z,15.20
2022-09-20T07:19:36.680Z,15.50
2022-09-20T07:22:04.365Z,15.80
2022-09-20T07:24:32.350Z,16.10
2022-09-20T07:27:05.127Z,16.40
2022-09-20T07:29:35.143Z,16.70
2022-09-20T07:32:03.004Z,17.00
2022-09-20T07:34:31.423Z,17.30
2022-09-20T07:37:00.378Z,17.60
2022-09-20T07:39:28.190Z,17.80
2022-09-20T07:41:56.148Z,18.10
2022-09-20T07:44:27.927Z,18.40
2022-09-20T07:47:01.563Z,18.70
2022-09-20T07:49:30.589Z,18.90
2022-09-20T07:52:00.665Z,19.30
2022-09-20T07:54:28.569Z,19.60
2022-09-20T07:56:57.542Z,20.00
2022-09-20T07:59:26.865Z,20.40
2022-09-20T08:01:58.927Z,20.70
2022-09-20T08:04:29.445Z,21.10
2022-09-20T08:06:59.627Z,21.30
2022-09-20T08:09:27.234Z,21.50
2022-09-20T08:11:56.708Z,21.50
2022-09-20T08:14:24.745Z,21.50
2022-09-20T08:16:52.809Z,21.60
2022-09-20T08:19:23.308Z,21.60
2022-09-20T08:21:56.379Z,21.70
2022-09-20T08:24:29.112Z,21.80
2022-09-20T08:26:57.255Z,22.00
2022-09-20T08:29:28.675Z,22.10
2022-09-20T08:31:59.011Z,22.10
2022-09-20T08:34:35.916Z,22.10
2022-09-20T08:37:09.655Z,21.90
2022-09-20T08:42:37.912Z,21.60
2022-09-20T08:45:34.605Z,21.50
2022-09-20T08:48:06.247Z,21.50
2022-09-20T08:50:41.161Z,21.50
2022-09-20T08:53:20.957Z,21.60
2022-09-20T08:55:50.507Z,21.70
2022-09-20T08:58:22.097Z,21.70
2022-09-20T09:00:52.944Z,21.80
2022-09-20T09:03:23.979Z,22.00
2022-09-20T09:05:58.561Z,22.20
2022-09-20T09:08:38.093Z,22.30
2022-09-20T09:11:09.671Z,22.50
2022-09-20T09:14:02.228Z,22.60
2022-09-20T09:16:35.250Z,22.70
2022-09-20T09:19:33.249Z,22.80
2022-09-20T09:22:04.439Z,22.70
2022-09-20T09:24:33.423Z,22.80
2022-09-20T09:27:18.794Z,22.90
2022-09-20T09:29:56.709Z,22.90
2022-09-20T09:32:31.216Z,22.70
2022-09-20T09:35:32.367Z,22.50
2022-09-20T09:38:04.391Z,22.40
2022-09-20T09:40:33.105Z,22.50
2022-09-20T09:43:03.137Z,22.80
2022-09-20T09:45:39.113Z,23.10
2022-09-20T09:48:30.339Z,23.40
2022-09-20T09:51:20.960Z,23.50
2022-09-20T09:53:51.335Z,23.70
2022-09-20T09:56:47.215Z,23.90
2022-09-20T09:59:42.268Z,23.90
2022-09-20T10:02:18.686Z,23.50
2022-09-20T10:05:00.495Z,23.30
2022-09-20T10:07:42.531Z,23.10
2022-09-20T10:10:32.496Z,22.90
2022-09-20T10:13:11.867Z,22.90
2022-09-20T10:16:11.844Z,23.00
2022-09-20T10:19:06.802Z,23.10
2022-09-20T10:22:01.953Z,23.30
2022-09-20T10:25:16.948Z,23.60
2022-09-20T10:27:58.343Z,23.90
2022-09-20T10:30:52.974Z,23.90
2022-09-20T10:33:54.051Z,23.70
2022-09-20T10:36:29.727Z,23.60
2022-09-20T10:39:21.067Z,23.50
2022-09-20T10:42:27.945Z,23.20
2022-09-20T10:45:53.365Z,23.00
2022-09-20T10:48:24.348Z,23.00
2022-09-20T10:51:00.179Z,23.00
2022-09-20T10:54:03.793Z,23.20
2022-09-20T10:56:47.197Z,23.50
2022-09-20T10:59:31.747Z,23.70
2022-09-20T11:02:36.539Z,23.70
2022-09-20T11:05:20.861Z,23.70
2022-09-20T11:07:56.817Z,23.90
2022-09-20T11:10:37.313Z,24.00
2022-09-20T11:13:39.778Z,24.30
2022-09-20T11:16:34.468Z,24.50
2022-09-20T11:19:18.466Z,24.60
2022-09-20T11:22:09.668Z,24.80
2022-09-20T11:24:47.540Z,25.20
2022-09-20T11:27:32.013Z,25.50
2022-09-20T11:30:20.038Z,25.60
2022-09-20T11:33:05.190Z,25.70
2022-09-20T11:35:48.056Z,25.70
2022-09-20T11:38:59.206Z,25.60
2022-09-20T11:41:31.645Z,25.40
2022-09-20T11:44:08.034Z,25.40
2022-09-20T11:46:47.917Z,25.70
2022-09-20T11:49:31.145Z,26.10
2022-09-20T11:52:07.648Z,26.10
2022-09-20T11:54:48.995Z,25.90
2022-09-20T11:57:17.737Z,25.70
2022-09-20T11:59:56.920Z,25.60
2022-09-20T12:02:27.464Z,25.70
2022-09-20T12:04:56.581Z,26.00
2022-09-20T12:07:42.141Z,26.30
2022-09-20T12:10:35.961Z,26.70
2022-09-20T12:13:07.618Z,27.10
2022-09-20T12:15:39.611Z,27.30
2022-09-20T12:18:28.869Z,27.10
2022-09-20T12:21:00.079Z,26.90
2022-09-20T12:23:59.700Z,26.90
2022-09-20T12:26:27.247Z,27.00
2022-09-20T12:29:09.900Z,27.10
2022-09-20T12:31:38.628Z,27.20
2022-09-20T12:34:14.490Z,27.10
2022-09-20T12:37:05.114Z,27.00
2022-09-20T12:39:38.741Z,26.90
2022-09-20T12:42:36.505Z,26.60
2022-09-20T12:45:18.932Z,26.50
2022-09-20T12:47:57.459Z,26.10
2022-09-20T12:50:56.326Z,25.90
2022-09-20T12:53:28.337Z,25.50
2022-09-20T12:56:02.037Z,25.10
2022-09-20T12:58:53.213Z,24.80
2022-09-20T13:01:21.092Z,24.60
2022-09-20T13:03:50.316Z,24.50
2022-09-20T13:06:19.290Z,24.30
2022-09-20T13:09:04.709Z,24.20
2022-09-20T13:11:56.044Z,24.20
2022-09-20T13:14:42.607Z,24.20
2022-09-20T13:17:26.886Z,24.20
2022-09-20T13:19:58.139Z,24.00
2022-09-20T13:22:29.132Z,24.00
2022-09-20T13:25:01.693Z,24.00
2022-09-20T13:28:21.601Z,24.00
2022-09-20T13:30:52.050Z,23.90
2022-09-20T13:33:25.070Z,23.90
2022-09-20T13:35:57.229Z,23.80
2022-09-20T13:38:30.188Z,23.90
2022-09-20T13:41:13.102Z,23.90
2022-09-20T13:43:41.975Z,24.00
2022-09-20T13:46:33.523Z,24.00
2022-09-20T13:49:20.813Z,24.00
2022-09-20T13:51:49.330Z,23.90
2022-09-20T13:54:31.858Z,23.90
2022-09-20T13:57:06.152Z,23.90
2022-09-20T13:59:44.950Z,23.90
2022-09-20T14:02:28.055Z,23.90
2022-09-20T14:05:00.832Z,24.00
2022-09-20T14:07:29.795Z,24.00
2022-09-20T14:10:01.473Z,23.90
2022-09-20T14:12:31.630Z,23.80
2022-09-20T14:15:00.062Z,23.60
2022-09-20T14:17:35.676Z,23.50
2022-09-20T14:20:03.826Z,23.40
2022-09-20T14:22:35.419Z,23.40
2022-09-20T14:25:21.688Z,23.40
2022-09-20T14:28:09.530Z,23.30
2022-09-20T14:30:49.319Z,23.20
2022-09-20T14:33:21.456Z,23.00
2022-09-20T14:35:51.723Z,22.90
2022-09-20T14:38:24.239Z,22.70
2022-09-20T14:40:52.723Z,22.60
2022-09-20T14:43:33.055Z,22.50
2022-09-20T14:46:07.738Z,22.30
2022-09-20T14:48:43.487Z,22.20
2022-09-20T14:51:27.724Z,22.10
2022-09-20T14:54:13.467Z,22.10
2022-09-20T14:56:49.438Z,22.10
2022-09-20T14:59:22.969Z,22.00
2022-09-20T15:02:10.389Z,22.00
2022-09-20T15:04:53.208Z,22.00
2022-09-20T15:07:27.216Z,22.00
2022-09-20T15:09:55.734Z,22.00
2022-09-20T15:12:23.898Z,22.00
2022-09-20T15:15:00.464Z,21.90
2022-09-20T15:17:28.118Z,21.80
2022-09-20T15:19:55.976Z,21.60
2022-09-20T15:22:24.120Z,21.50
2022-09-20T15:25:01.815Z,21.40
2022-09-20T15:27:31.640Z,21.30
2022-09-20T15:29:59.422Z,21.30
2022-09-20T15:32:28.702Z,21.20
2022-09-20T15:34:56.313Z,21.20
2022-09-20T15:37:24.142Z,21.20
2022-09-20T15:39:52.237Z,21.10
2022-09-20T15:42:21.636Z,21.00
2022-09-20T15:44:57.003Z,21.00
2022-09-20T15:47:26.844Z,20.90
2022-09-20T15:49:54.954Z,20.90
2022-09-20T15:52:29.065Z,20.80
2022-09-20T15:54:59.585Z,20.70
2022-09-20T15:57:27.552Z,20.60
2022-09-20T16:00:05.174Z,20.50
2022-09-20T16:02:37.264Z,20.50
2022-09-20T16:05:14.559Z,20.40
2022-09-20T16:07:46.180Z,20.30
2022-09-20T16:10:15.372Z,20.20
2022-09-20T16:12:48.872Z,20.10
2022-09-20T16:15:17.156Z,20.00
2022-09-20T16:18:03.288Z,19.90
2022-09-20T16:20:34.181Z,19.90
2022-09-20T16:23:03.843Z,19.80
2022-09-20T16:25:34.388Z,19.70
2022-09-20T16:28:02.418Z,19.60
2022-09-20T16:30:31.126Z,19.60
2022-09-20T16:33:06.055Z,19.50
2022-09-20T16:35:34.271Z,19.50
2022-09-20T16:38:02.076Z,19.50
2022-09-20T16:40:33.828Z,19.40
2022-09-20T16:43:11.624Z,19.40
2022-09-20T16:45:41.426Z,19.30
2022-09-20T16:48:09.993Z,19.30
2022-09-20T16:50:39.963Z,19.30
2022-09-20T16:53:12.221Z,19.30
2022-09-20T16:55:45.353Z,19.30
2022-09-20T16:58:13.248Z,19.30
2022-09-20T17:00:43.898Z,19.30
2022-09-20T17:03:12.494Z,19.60
2022-09-20T17:05:44.191Z,19.20
2022-09-20T17:08:18.061Z,19.20
2022-09-20T17:11:00.404Z,19.10
2022-09-20T17:13:34.343Z,19.10
2022-09-20T17:16:19.479Z,19.10
2022-09-20T17:18:56.438Z,19.10
2022-09-20T17:21:25.440Z,19.00
2022-09-20T17:24:13.867Z,19.00
2022-09-20T17:26:46.696Z,19.00
2022-09-20T17:29:17.791Z,19.00
2022-09-20T17:31:56.238Z,18.90
2022-09-20T17:34:25.631Z,19.00
2022-09-20T17:36:55.389Z,19.00
2022-09-20T17:39:33.769Z,18.90
2022-09-20T17:42:04.457Z,18.90
2022-09-20T17:44:36.742Z,18.80
2022-09-20T17:47:04.713Z,18.90
2022-09-20T17:49:37.680Z,18.80
2022-09-20T17:52:09.884Z,18.80
2022-09-20T17:54:51.469Z,18.70
2022-09-20T17:57:19.303Z,18.70
2022-09-20T17:59:49.517Z,18.70
2022-09-20T18:02:23.949Z,18.60
2022-09-20T18:04:54.021Z,18.50
2022-09-20T18:07:21.600Z,18.50
2022-09-20T18:09:49.239Z,18.50
2022-09-20T18:12:21.589Z,18.30
2022-09-20T18:14:49.325Z,18.30
2022-09-20T18:17:16.965Z,18.20
2022-09-20T18:19:44.733Z,18.10
2022-09-20T18:22:13.240Z,18.00
2022-09-20T18:24:41.014Z,17.90
2022-09-20T18:27:13.409Z,17.80
2022-09-20T18:29:41.329Z,17.70
2022-09-20T18:32:12.413Z,17.60
2022-09-20T18:34:46.266Z,17.50
2022-09-20T18:37:14.844Z,17.40
2022-09-20T18:39:43.101Z,17.30
2022-09-20T18:42:19.655Z,17.10
2022-09-20T18:44:54.132Z,17.10
2022-09-20T18:47:22.141Z,17.00
2022-09-20T18:49:53.942Z,16.90
2022-09-20T18:52:24.159Z,16.80
2022-09-20T18:54:53.873Z,16.70
2022-09-20T18:57:22.106Z,16.60
2022-09-20T18:59:55.213Z,16.60
2022-09-20T19:02:59.481Z,16.50
2022-09-20T19:05:32.594Z,16.50
2022-09-20T19:08:21.867Z,16.50
2022-09-20T19:11:01.274Z,16.50
2022-09-20T19:13:44.995Z,16.50
2022-09-20T19:16:39.073Z,16.50
2022-09-20T19:19:41.050Z,16.50
2022-09-20T19:22:44.003Z,16.50
2022-09-20T19:25:25.273Z,16.50
2022-09-20T19:27:54.495Z,16.50
2022-09-20T19:30:28.356Z,16.40
2022-09-20T19:33:04.288Z,16.40
2022-09-20T19:35:39.440Z,16.40
2022-09-20T19:38:15.591Z,16.40
2022-09-20T19:40:59.688Z,16.40
2022-09-20T19:44:12.402Z,16.40
2022-09-20T19:47:08.884Z,16.40
2022-09-20T19:49:46.540Z,16.40
2022-09-20T19:52:15.608Z,16.40
2022-09-20T19:54:49.321Z,16.50
2022-09-20T19:57:28.545Z,16.50
2022-09-20T19:59:58.863Z,16.50
2022-09-20T20:02:26.767Z,16.60
2022-09-20T20:04:54.686Z,16.60
2022-09-20T20:07:43.088Z,16.60
2022-09-20T20:10:44.025Z,16.60
2022-09-20T20:14:15.162Z,16.60
2022-09-20T20:17:20.940Z,16.60
2022-09-20T20:20:11.116Z,16.60
2022-09-20T20:22:56.906Z,16.60
2022-09-20T20:25:36.108Z,16.50
2022-09-20T20:28:13.844Z,16.40
2022-09-20T20:30:42.258Z,16.40
2022-09-20T20:33:25.026Z,16.40
2022-09-20T20:35:58.666Z,16.30
2022-09-20T20:38:27.251Z,16.30
2022-09-20T20:41:06.737Z,16.30
2022-09-20T20:43:45.781Z,16.30
2022-09-20T20:46:18.817Z,16.30
2022-09-20T20:48:48.078Z,16.40
2022-09-20T20:51:18.558Z,16.40
2022-09-20T20:53:50.565Z,16.40
2022-09-20T20:56:23.284Z,16.30
2022-09-20T20:58:51.343Z,16.30
2022-09-20T21:01:29.899Z,16.30
2022-09-20T21:03:58.960Z,16.30
2022-09-20T21:06:30.356Z,16.30
2022-09-20T21:08:58.476Z,16.20
2022-09-20T21:11:33.682Z,16.10
2022-09-20T21:14:04.961Z,16.10
2022-09-20T21:16:40.424Z,16.10
2022-09-20T21:19:09.628Z,16.00
2022-09-20T21:21:39.227Z,15.90
2022-09-20T21:24:09.444Z,15.90
2022-09-20T21:26:40.835Z,15.80
2022-09-20T21:29:16.362Z,15.70
2022-09-20T21:32:06.370Z,15.60
2022-09-20T21:34:38.793Z,15.60
2022-09-20T21:37:06.507Z,15.50
2022-09-20T21:39:42.255Z,15.50
2022-09-20T21:42:10.101Z,15.40
2022-09-20T21:44:38.924Z,15.40
2022-09-20T21:47:09.906Z,15.30
2022-09-20T21:49:37.436Z,15.30
2022-09-20T21:52:07.695Z,15.20
2022-09-20T21:54:35.325Z,15.20
2022-09-20T21:57:05.629Z,15.10
2022-09-20T21:59:33.711Z,15.00
2022-09-20T22:02:04.578Z,15.00
2022-09-20T22:04:32.513Z,14.90
2022-09-20T22:07:17.113Z,14.90
2022-09-20T22:09:45.361Z,14.80
2022-09-20T22:12:13.085Z,14.70
2022-09-20T22:14:41.692Z,14.70
2022-09-20T22:17:09.575Z,14.70
2022-09-20T22:19:38.005Z,14.70
2022-09-20T22:22:05.617Z,14.60
2022-09-20T22:24:36.109Z,14.60
2022-09-20T22:27:09.321Z,14.60
2022-09-20T22:29:37.348Z,14.60
2022-09-20T22:32:05.579Z,14.60
2022-09-20T22:34:41.997Z,14.70
2022-09-20T22:37:10.244Z,14.70
2022-09-20T22:39:38.882Z,14.70
2022-09-20T22:42:06.645Z,14.70
2022-09-20T22:44:35.508Z,14.80
2022-09-20T22:47:03.963Z,14.80
2022-09-20T22:49:31.835Z,14.80
2022-09-20T22:52:08.877Z,14.80
2022-09-20T22:54:36.812Z,14.80
2022-09-20T22:57:08.195Z,14.90
2022-09-20T22:59:36.072Z,14.90
2022-09-20T23:02:06.554Z,14.90
2022-09-20T23:04:37.447Z,14.90
2022-09-20T23:07:07.861Z,14.90
2022-09-20T23:09:35.862Z,14.90
2022-09-20T23:12:11.509Z,14.90
2022-09-20T23:14:47.828Z,14.90
2022-09-20T23:17:15.710Z,14.90
2022-09-20T23:19:44.709Z,14.90
2022-09-20T23:22:13.060Z,14.90
2022-09-20T23:24:43.482Z,14.90
2022-09-20T23:27:17.651Z,14.90
2022-09-20T23:29:45.591Z,14.80
2022-09-20T23:32:13.537Z,14.80
2022-09-20T23:34:44.249Z,14.80
2022-09-20T23:37:12.053Z,14.80
2022-09-20T23:39:42.789Z,14.80
2022-09-20T23:42:12.923Z,14.80
2022-09-20T23:44:43.602Z,14.80
2022-09-20T23:47:11.329Z,14.80
2022-09-20T23:49:39.377Z,14.80
2022-09-20T23:52:11.175Z,14.80
2022-09-20T23:54:42.516Z,15.40
2022-09-20T23:57:12.943Z,14.80
2022-09-20T23:59:41.339Z,14.80
